Pohang Airport
RKTH : now visible

Airfield :











YOU CAN JOIN US ON...

 
LOGIN :

Register | Disclaimer

   EN    FR    IT 

 









Legend :    VFR   Marginal VFR   IFR   Intensive IFR   Very Intensive IFR
Visi :
Ceiling :
>= 8 km
>= 3000ft
5 to 8 km
1000 to 3000 ft
1500m to 5 km
500 to 1000 ft
800 to 1500m
200 to 500 ft
< 800m
< 200 ft
Symbols :   Thunderstorms  Fog  Heavy snow  Heavy precipitations  Wind > 20 kt






- Airport Elevation : 70 ft
- IATA code : KPO


RKTH - Pohang

CURRENT METAR :
  • 121800Z 21005KT CAVOK 08/07 Q1020 RMK SLP210

EXPIRED METARs :
  • 121700Z 21003KT CAVOK 08/08 Q1020 RMK SLP209
  • 121600Z 22003KT CAVOK 09/09 Q1020 RMK SLP211

TAF TAF RKTH
Valid from the 12 at 18:00 until the 14 at 00:00 UTC


121700Z 1218/1324 24006KT 9999 SCT030 SCT200 TN08/1221Z TX18/1306Z
BECMG 1302/1303 24010KT 8000 BKN030 BKN100



MET'MAP, your aeronautical weather chart ! - Copyright ORBIFLY December 2007 - Disclaimer

ORBIFLY MET'MAP TEAM :

Programming & Development : Alexandra Zaïnal
Concept & Development : Baudouin d'Aumeries
Co-Development & Prog : Marc-Olivier Méhu
Technical & hardware support : Manuel Goepfert

Contact : metmap@orbifly.com




SOURCES & CREDITS :

   NOAA       Earth
Advisory